TAF KMAF
KMAF 090520Z 0906/1006 21011KT P6SM BKN200 FM091700 24015G26KT P6SM BKN150 FM100100 23011KT P6SM OVC200=
METAR KMAF
KMAF 090853Z AUTO 22013KT 10SM CLR 14/01 A2987 RMK AO2 SLP079 T01390011 58004 ?
KMAF 090753Z AUTO 23009KT 10SM CLR 13/01 A2988 RMK AO2 SLP087 T01330006 ?
KMAF 090653Z AUTO 21013KT 10SM CLR 16/M02 A2988 RMK AO2 SLP083 T01611017
KMAF 090553Z AUTO 21011KT 10SM CLR 16/M03 A2988 RMK AO2 SLP085 T01611033 10200 20128 402330017 58008 ?
KMAF 090453Z 20013KT 10SM CLR 16/M04 A2989 RMK AO2 SLP091 T01611039 ?
WC KMAF
WS KMAF
WV KMAF